sensor_id;sensor_type;location;lat;lon;timestamp;temperature;humidity
316;DHT22;14128;48.686;9.738;2023-04-25T00:00:01;6.90;85.80
316;DHT22;14128;48.686;9.738;2023-04-25T00:02:29;6.90;72.90
316;DHT22;14128;48.686;9.738;2023-04-25T00:04:58;6.80;94.90
316;DHT22;14128;48.686;9.738;2023-04-25T00:07:25;6.80;99.90
316;DHT22;14128;48.686;9.738;2023-04-25T00:09:52;6.70;99.90
316;DHT22;14128;48.686;9.738;2023-04-25T00:12:19;6.80;99.90
316;DHT22;14128;48.686;9.738;2023-04-25T00:14:47;6.80;99.90
316;DHT22;14128;48.686;9.738;2023-04-25T00:17:15;6.80;99.90
316;DHT22;14128;48.686;9.738;2023-04-25T00:19:42;6.80;99.90
316;DHT22;14128;48.686;9.738;2023-04-25T00:22:11;6.90;99.90
316;DHT22;14128;48.686;9.738;2023-04-25T00:24:38;6.90;93.10
316;DHT22;14128;48.686;9.738;2023-04-25T00:27:05;6.80;89.90
316;DHT22;14128;48.686;9.738;2023-04-25T00:29:33;6.80;99.90
316;DHT22;14128;48.686;9.738;2023-04-25T00:32:00;6.90;99.90
316;DHT22;14128;48.686;9.738;2023-04-25T00:34:27;6.90;99.90
316;DHT22;14128;48.686;9.738;2023-04-25T00:36:54;7.00;99.90
316;DHT22;14128;48.686;9.738;2023-04-25T00:39:23;7.10;99.90
316;DHT22;14128;48.686;9.738;2023-04-25T00:41:50;7.20;1.00
316;DHT22;14128;48.686;9.738;2023-04-25T00:44:20;7.20;99.90
316;DHT22;14128;48.686;9.738;2023-04-25T00:46:47;7.30;1.00
316;DHT22;14128;48.686;9.738;2023-04-25T00:49:14;7.40;99.90
316;DHT22;14128;48.686;9.738;2023-04-25T00:51:43;7.40;99.90
316;DHT22;14128;48.686;9.738;2023-04-25T00:54:11;7.30;1.00
316;DHT22;14128;48.686;9.738;2023-04-25T00:56:40;7.20;4.20
316;DHT22;14128;48.686;9.738;2023-04-25T00:59:07;7.10;1.00
316;DHT22;14128;48.686;9.738;2023-04-25T01:01:36;7.20;1.00
316;DHT22;14128;48.686;9.738;2023-04-25T01:04:03;7.20;1.00
316;DHT22;14128;48.686;9.738;2023-04-25T01:06:30;7.30;99.90
316;DHT22;14128;48.686;9.738;2023-04-25T01:08:59;7.30;9.50
316;DHT22;14128;48.686;9.738;2023-04-25T01:11:26;7.20;7.50
316;DHT22;14128;48.686;9.738;2023-04-25T01:13:54;7.30;1.00
316;DHT22;14128;48.686;9.738;2023-04-25T01:16:21;7.30;1.00
316;DHT22;14128;48.686;9.738;2023-04-25T01:18:49;7.30;7.60
316;DHT22;14128;48.686;9.738;2023-04-25T01:21:18;7.30;99.90
316;DHT22;14128;48.686;9.738;2023-04-25T01:23:45;7.30;99.90
316;DHT22;14128;48.686;9.738;2023-04-25T01:26:12;7.30;1.00
316;DHT22;14128;48.686;9.738;2023-04-25T01:28:40;7.30;99.90
316;DHT22;14128;48.686;9.738;2023-04-25T01:31:07;7.30;1.40
316;DHT22;14128;48.686;9.738;2023-04-25T01:33:34;7.30;99.90
316;DHT22;14128;48.686;9.738;2023-04-25T01:36:01;7.40;1.00
316;DHT22;14128;48.686;9.738;2023-04-25T01:38:29;7.40;99.90
316;DHT22;14128;48.686;9.738;2023-04-25T01:40:56;7.50;1.00
316;DHT22;14128;48.686;9.738;2023-04-25T01:43:24;7.60;1.00
316;DHT22;14128;48.686;9.738;2023-04-25T01:45:52;7.50;99.90
316;DHT22;14128;48.686;9.738;2023-04-25T01:48:19;7.50;99.90
316;DHT22;14128;48.686;9.738;2023-04-25T01:50:46;7.50;99.90
316;DHT22;14128;48.686;9.738;2023-04-25T01:53:13;7.50;1.00
316;DHT22;14128;48.686;9.738;2023-04-25T01:55:42;7.50;1.00
316;DHT22;14128;48.686;9.738;2023-04-25T01:58:09;7.40;1.00
316;DHT22;14128;48.686;9.738;2023-04-25T02:00:38;7.40;1.00
316;DHT22;14128;48.686;9.738;2023-04-25T02:03:06;7.40;1.00
316;DHT22;14128;48.686;9.738;2023-04-25T02:05:35;7.40;1.00
316;DHT22;14128;48.686;9.738;2023-04-25T02:08:02;7.40;1.00
316;DHT22;14128;48.686;9.738;2023-04-25T02:10:29;7.40;1.00
316;DHT22;14128;48.686;9.738;2023-04-25T02:12:58;7.40;1.00
316;DHT22;14128;48.686;9.738;2023-04-25T02:15:25;7.30;1.00
316;DHT22;14128;48.686;9.738;2023-04-25T02:17:52;7.30;1.00
316;DHT22;14128;48.686;9.738;2023-04-25T02:20:20;7.20;1.00
316;DHT22;14128;48.686;9.738;2023-04-25T02:22:47;7.20;3.10
316;DHT22;14128;48.686;9.738;2023-04-25T02:25:14;7.20;13.30
316;DHT22;14128;48.686;9.738;2023-04-25T02:27:41;7.10;18.30
316;DHT22;14128;48.686;9.738;2023-04-25T02:30:10;7.10;27.90
316;DHT22;14128;48.686;9.738;2023-04-25T02:32:37;7.00;47.70
316;DHT22;14128;48.686;9.738;2023-04-25T02:35:05;7.00;39.10
316;DHT22;14128;48.686;9.738;2023-04-25T02:37:32;7.00;29.60
316;DHT22;14128;48.686;9.738;2023-04-25T02:39:59;7.10;14.10
316;DHT22;14128;48.686;9.738;2023-04-25T02:42:27;7.10;9.00
316;DHT22;14128;48.686;9.738;2023-04-25T02:44:54;7.10;12.40
316;DHT22;14128;48.686;9.738;2023-04-25T02:47:22;7.10;1.00
316;DHT22;14128;48.686;9.738;2023-04-25T02:49:49;7.20;1.00
316;DHT22;14128;48.686;9.738;2023-04-25T02:52:16;7.20;1.00
316;DHT22;14128;48.686;9.738;2023-04-25T02:54:42;7.30;1.00
316;DHT22;14128;48.686;9.738;2023-04-25T02:57:09;7.30;1.00
316;DHT22;14128;48.686;9.738;2023-04-25T02:59:36;7.20;1.00
316;DHT22;14128;48.686;9.738;2023-04-25T03:02:03;7.10;1.00
316;DHT22;14128;48.686;9.738;2023-04-25T03:04:31;7.00;1.00
316;DHT22;14128;48.686;9.738;2023-04-25T03:06:59;6.90;1.00
316;DHT22;14128;48.686;9.738;2023-04-25T03:09:26;6.90;1.00
316;DHT22;14128;48.686;9.738;2023-04-25T03:11:53;6.90;1.00
316;DHT22;14128;48.686;9.738;2023-04-25T03:14:20;7.00;1.00
316;DHT22;14128;48.686;9.738;2023-04-25T03:16:47;7.00;1.00
316;DHT22;14128;48.686;9.738;2023-04-25T03:19:13;6.90;1.00
316;DHT22;14128;48.686;9.738;2023-04-25T03:21:42;6.70;1.00
316;DHT22;14128;48.686;9.738;2023-04-25T03:24:09;6.70;1.00
316;DHT22;14128;48.686;9.738;2023-04-25T03:26:37;6.60;1.00
316;DHT22;14128;48.686;9.738;2023-04-25T03:29:04;6.50;1.20
316;DHT22;14128;48.686;9.738;2023-04-25T03:31:31;6.60;1.00
316;DHT22;14128;48.686;9.738;2023-04-25T03:33:58;6.60;1.00
316;DHT22;14128;48.686;9.738;2023-04-25T03:36:25;6.70;1.00
316;DHT22;14128;48.686;9.738;2023-04-25T03:38:53;6.80;1.00
316;DHT22;14128;48.686;9.738;2023-04-25T03:41:20;6.90;1.00
316;DHT22;14128;48.686;9.738;2023-04-25T03:43:46;7.00;1.00
316;DHT22;14128;48.686;9.738;2023-04-25T03:46:13;7.00;1.00
316;DHT22;14128;48.686;9.738;2023-04-25T03:48:40;7.10;1.00
316;DHT22;14128;48.686;9.738;2023-04-25T03:51:07;7.10;1.00
316;DHT22;14128;48.686;9.738;2023-04-25T03:53:34;7.00;1.00
316;DHT22;14128;48.686;9.738;2023-04-25T03:56:02;6.90;1.00
316;DHT22;14128;48.686;9.738;2023-04-25T03:58:29;6.90;1.00
316;DHT22;14128;48.686;9.738;2023-04-25T04:00:56;7.10;1.00
316;DHT22;14128;48.686;9.738;2023-04-25T04:03:22;7.10;1.00
316;DHT22;14128;48.686;9.738;2023-04-25T04:05:49;7.10;1.00
316;DHT22;14128;48.686;9.738;2023-04-25T04:08:16;7.10;1.00
316;DHT22;14128;48.686;9.738;2023-04-25T04:10:43;7.10;1.00
316;DHT22;14128;48.686;9.738;2023-04-25T04:13:11;7.10;1.00
316;DHT22;14128;48.686;9.738;2023-04-25T04:15:38;7.10;1.00
316;DHT22;14128;48.686;9.738;2023-04-25T04:18:05;7.00;1.00
316;DHT22;14128;48.686;9.738;2023-04-25T04:20:32;7.00;1.00
316;DHT22;14128;48.686;9.738;2023-04-25T04:22:59;6.90;1.00
316;DHT22;14128;48.686;9.738;2023-04-25T04:25:26;6.60;1.00
316;DHT22;14128;48.686;9.738;2023-04-25T04:27:54;6.30;1.00
316;DHT22;14128;48.686;9.738;2023-04-25T04:30:23;6.20;1.00
316;DHT22;14128;48.686;9.738;2023-04-25T04:32:51;6.20;5.80
316;DHT22;14128;48.686;9.738;2023-04-25T04:35:18;6.30;13.00
316;DHT22;14128;48.686;9.738;2023-04-25T04:37:44;6.40;3.70
316;DHT22;14128;48.686;9.738;2023-04-25T04:40:12;6.50;3.20
316;DHT22;14128;48.686;9.738;2023-04-25T04:42:41;6.50;10.30
316;DHT22;14128;48.686;9.738;2023-04-25T04:45:08;6.60;12.90
316;DHT22;14128;48.686;9.738;2023-04-25T04:47:36;6.60;17.90
316;DHT22;14128;48.686;9.738;2023-04-25T04:50:05;6.70;13.30
316;DHT22;14128;48.686;9.738;2023-04-25T04:52:32;6.70;9.30
316;DHT22;14128;48.686;9.738;2023-04-25T04:54:59;6.70;14.30
316;DHT22;14128;48.686;9.738;2023-04-25T04:57:26;6.80;13.50
316;DHT22;14128;48.686;9.738;2023-04-25T04:59:53;6.90;20.40
316;DHT22;14128;48.686;9.738;2023-04-25T05:02:20;6.90;22.20
316;DHT22;14128;48.686;9.738;2023-04-25T05:04:48;7.00;24.00
316;DHT22;14128;48.686;9.738;2023-04-25T05:07:17;7.10;21.70
316;DHT22;14128;48.686;9.738;2023-04-25T05:09:44;7.20;25.60
316;DHT22;14128;48.686;9.738;2023-04-25T05:12:11;7.20;17.80
316;DHT22;14128;48.686;9.738;2023-04-25T05:14:37;7.30;12.50
316;DHT22;14128;48.686;9.738;2023-04-25T05:17:04;7.40;10.10
316;DHT22;14128;48.686;9.738;2023-04-25T05:19:34;7.50;8.70
316;DHT22;14128;48.686;9.738;2023-04-25T05:22:02;7.60;1.60
316;DHT22;14128;48.686;9.738;2023-04-25T05:24:29;7.70;1.00
316;DHT22;14128;48.686;9.738;2023-04-25T05:26:56;7.80;1.00
316;DHT22;14128;48.686;9.738;2023-04-25T05:29:23;7.90;1.00
316;DHT22;14128;48.686;9.738;2023-04-25T05:31:49;8.00;1.00
316;DHT22;14128;48.686;9.738;2023-04-25T05:34:16;8.00;1.00
316;DHT22;14128;48.686;9.738;2023-04-25T05:36:43;8.10;1.00
316;DHT22;14128;48.686;9.738;2023-04-25T05:39:15;8.20;1.00
316;DHT22;14128;48.686;9.738;2023-04-25T05:41:42;8.30;1.00
316;DHT22;14128;48.686;9.738;2023-04-25T05:44:09;8.20;1.00
316;DHT22;14128;48.686;9.738;2023-04-25T05:46:36;8.30;1.00
316;DHT22;14128;48.686;9.738;2023-04-25T05:49:02;8.30;1.00
316;DHT22;14128;48.686;9.738;2023-04-25T05:51:29;8.30;1.00
316;DHT22;14128;48.686;9.738;2023-04-25T05:53:57;8.20;1.00
316;DHT22;14128;48.686;9.738;2023-04-25T05:56:25;8.20;1.00
316;DHT22;14128;48.686;9.738;2023-04-25T05:58:52;8.20;1.00
316;DHT22;14128;48.686;9.738;2023-04-25T06:01:19;8.20;1.00
316;DHT22;14128;48.686;9.738;2023-04-25T06:03:46;8.30;1.00
316;DHT22;14128;48.686;9.738;2023-04-25T06:06:13;8.40;1.00
316;DHT22;14128;48.686;9.738;2023-04-25T06:08:40;8.30;1.00
316;DHT22;14128;48.686;9.738;2023-04-25T06:11:06;8.40;1.00
316;DHT22;14128;48.686;9.738;2023-04-25T06:13:35;8.50;1.00
316;DHT22;14128;48.686;9.738;2023-04-25T06:16:02;8.60;1.00
316;DHT22;14128;48.686;9.738;2023-04-25T06:18:28;8.70;1.00
316;DHT22;14128;48.686;9.738;2023-04-25T06:20:55;8.90;1.00
316;DHT22;14128;48.686;9.738;2023-04-25T06:23:22;8.90;1.00
316;DHT22;14128;48.686;9.738;2023-04-25T06:25:49;9.00;1.00
316;DHT22;14128;48.686;9.738;2023-04-25T06:28:16;8.90;1.00
316;DHT22;14128;48.686;9.738;2023-04-25T06:30:44;8.80;1.00
316;DHT22;14128;48.686;9.738;2023-04-25T06:33:11;8.70;1.00
316;DHT22;14128;48.686;9.738;2023-04-25T06:35:38;8.90;1.00
316;DHT22;14128;48.686;9.738;2023-04-25T06:38:05;9.10;1.00
316;DHT22;14128;48.686;9.738;2023-04-25T06:40:31;9.30;1.00
316;DHT22;14128;48.686;9.738;2023-04-25T06:42:58;9.50;1.00
316;DHT22;14128;48.686;9.738;2023-04-25T06:45:25;9.70;1.00
316;DHT22;14128;48.686;9.738;2023-04-25T06:47:53;9.80;1.00
316;DHT22;14128;48.686;9.738;2023-04-25T06:50:20;9.90;1.00
316;DHT22;14128;48.686;9.738;2023-04-25T06:52:47;10.00;1.00
316;DHT22;14128;48.686;9.738;2023-04-25T06:55:14;10.10;1.00
316;DHT22;14128;48.686;9.738;2023-04-25T06:57:41;10.50;1.00
316;DHT22;14128;48.686;9.738;2023-04-25T07:00:09;10.90;1.00
316;DHT22;14128;48.686;9.738;2023-04-25T07:02:36;11.10;1.00
316;DHT22;14128;48.686;9.738;2023-04-25T07:05:05;11.30;1.00
316;DHT22;14128;48.686;9.738;2023-04-25T07:07:31;11.50;1.00
316;DHT22;14128;48.686;9.738;2023-04-25T07:09:58;11.60;1.00
316;DHT22;14128;48.686;9.738;2023-04-25T07:12:25;11.70;1.00
316;DHT22;14128;48.686;9.738;2023-04-25T07:14:52;12.00;1.00
316;DHT22;14128;48.686;9.738;2023-04-25T07:17:19;12.30;1.40
316;DHT22;14128;48.686;9.738;2023-04-25T07:19:46;12.40;1.00
316;DHT22;14128;48.686;9.738;2023-04-25T07:22:14;12.30;1.00
316;DHT22;14128;48.686;9.738;2023-04-25T07:24:41;12.20;99.90
316;DHT22;14128;48.686;9.738;2023-04-25T07:27:08;11.90;1.00
316;DHT22;14128;48.686;9.738;2023-04-25T07:29:35;11.70;1.00
316;DHT22;14128;48.686;9.738;2023-04-25T07:32:03;11.30;1.40
316;DHT22;14128;48.686;9.738;2023-04-25T07:34:30;10.90;1.00
316;DHT22;14128;48.686;9.738;2023-04-25T07:36:57;10.70;99.90
316;DHT22;14128;48.686;9.738;2023-04-25T07:39:27;10.60;1.00
316;DHT22;14128;48.686;9.738;2023-04-25T07:41:53;10.50;1.00
316;DHT22;14128;48.686;9.738;2023-04-25T07:44:20;10.40;1.00
316;DHT22;14128;48.686;9.738;2023-04-25T07:46:47;10.40;1.00
316;DHT22;14128;48.686;9.738;2023-04-25T07:49:14;10.50;99.90
316;DHT22;14128;48.686;9.738;2023-04-25T07:51:41;10.70;99.90
316;DHT22;14128;48.686;9.738;2023-04-25T07:54:08;10.80;99.90
316;DHT22;14128;48.686;9.738;2023-04-25T07:56:37;11.00;99.90
316;DHT22;14128;48.686;9.738;2023-04-25T07:59:03;11.00;99.90
316;DHT22;14128;48.686;9.738;2023-04-25T08:01:30;11.20;99.90
316;DHT22;14128;48.686;9.738;2023-04-25T08:03:57;11.30;99.90
316;DHT22;14128;48.686;9.738;2023-04-25T08:06:24;11.30;99.90
316;DHT22;14128;48.686;9.738;2023-04-25T08:08:51;11.30;99.90
316;DHT22;14128;48.686;9.738;2023-04-25T08:11:18;11.40;99.90
316;DHT22;14128;48.686;9.738;2023-04-25T08:13:46;11.20;99.90
316;DHT22;14128;48.686;9.738;2023-04-25T08:16:13;11.00;99.90
316;DHT22;14128;48.686;9.738;2023-04-25T08:18:40;10.70;99.90
316;DHT22;14128;48.686;9.738;2023-04-25T08:21:07;10.30;99.90
316;DHT22;14128;48.686;9.738;2023-04-25T08:23:36;10.00;1.00
316;DHT22;14128;48.686;9.738;2023-04-25T08:26:03;10.00;1.00
316;DHT22;14128;48.686;9.738;2023-04-25T08:28:31;9.90;1.00
316;DHT22;14128;48.686;9.738;2023-04-25T08:30:59;9.50;1.00
316;DHT22;14128;48.686;9.738;2023-04-25T08:33:26;9.50;1.00
316;DHT22;14128;48.686;9.738;2023-04-25T08:35:53;9.50;1.00
316;DHT22;14128;48.686;9.738;2023-04-25T08:38:20;9.50;1.00
316;DHT22;14128;48.686;9.738;2023-04-25T08:40:49;9.40;1.00
316;DHT22;14128;48.686;9.738;2023-04-25T08:43:18;9.30;1.00
316;DHT22;14128;48.686;9.738;2023-04-25T08:45:46;9.10;1.00
316;DHT22;14128;48.686;9.738;2023-04-25T08:48:16;9.00;1.00
316;DHT22;14128;48.686;9.738;2023-04-25T08:50:49;9.00;1.00
316;DHT22;14128;48.686;9.738;2023-04-25T08:53:22;8.90;1.00
316;DHT22;14128;48.686;9.738;2023-04-25T08:55:50;8.90;1.00
316;DHT22;14128;48.686;9.738;2023-04-25T08:58:18;8.80;1.00
316;DHT22;14128;48.686;9.738;2023-04-25T09:00:46;8.90;1.00
316;DHT22;14128;48.686;9.738;2023-04-25T09:03:14;8.90;1.00
316;DHT22;14128;48.686;9.738;2023-04-25T09:05:41;8.70;1.00
316;DHT22;14128;48.686;9.738;2023-04-25T09:08:08;8.70;1.00
316;DHT22;14128;48.686;9.738;2023-04-25T09:10:36;8.60;1.00
316;DHT22;14128;48.686;9.738;2023-04-25T09:13:05;8.60;1.00
316;DHT22;14128;48.686;9.738;2023-04-25T09:15:32;8.80;1.00
316;DHT22;14128;48.686;9.738;2023-04-25T09:18:00;8.90;1.00
316;DHT22;14128;48.686;9.738;2023-04-25T09:20:28;9.10;1.00
316;DHT22;14128;48.686;9.738;2023-04-25T09:23:01;9.10;1.00
316;DHT22;14128;48.686;9.738;2023-04-25T09:25:34;9.20;1.00
316;DHT22;14128;48.686;9.738;2023-04-25T09:28:04;9.00;1.00
316;DHT22;14128;48.686;9.738;2023-04-25T09:30:33;9.10;1.00
316;DHT22;14128;48.686;9.738;2023-04-25T09:33:04;9.00;1.00
316;DHT22;14128;48.686;9.738;2023-04-25T09:35:37;9.00;1.00
316;DHT22;14128;48.686;9.738;2023-04-25T09:38:09;9.00;1.00
316;DHT22;14128;48.686;9.738;2023-04-25T09:40:39;9.20;1.00
316;DHT22;14128;48.686;9.738;2023-04-25T09:43:09;9.40;1.00
316;DHT22;14128;48.686;9.738;2023-04-25T09:45:41;9.40;1.00
316;DHT22;14128;48.686;9.738;2023-04-25T09:48:11;9.40;1.00
316;DHT22;14128;48.686;9.738;2023-04-25T09:50:39;9.60;1.00
316;DHT22;14128;48.686;9.738;2023-04-25T09:53:06;9.50;1.00
316;DHT22;14128;48.686;9.738;2023-04-25T09:55:34;9.30;1.00
316;DHT22;14128;48.686;9.738;2023-04-25T09:58:04;9.20;1.00
316;DHT22;14128;48.686;9.738;2023-04-25T10:00:32;9.10;1.00
316;DHT22;14128;48.686;9.738;2023-04-25T10:03:01;9.00;1.00
316;DHT22;14128;48.686;9.738;2023-04-25T10:05:32;9.10;1.00
316;DHT22;14128;48.686;9.738;2023-04-25T10:08:02;8.90;1.00
316;DHT22;14128;48.686;9.738;2023-04-25T10:10:30;8.70;1.00
316;DHT22;14128;48.686;9.738;2023-04-25T10:13:03;8.40;1.00
316;DHT22;14128;48.686;9.738;2023-04-25T10:15:31;8.40;40.20
316;DHT22;14128;48.686;9.738;2023-04-25T10:17:59;8.40;1.00
316;DHT22;14128;48.686;9.738;2023-04-25T10:20:26;8.30;99.90
316;DHT22;14128;48.686;9.738;2023-04-25T10:22:55;8.10;99.90
316;DHT22;14128;48.686;9.738;2023-04-25T10:25:26;7.80;1.00
316;DHT22;14128;48.686;9.738;2023-04-25T10:27:53;7.70;99.90
316;DHT22;14128;48.686;9.738;2023-04-25T10:30:21;7.60;99.90
316;DHT22;14128;48.686;9.738;2023-04-25T10:32:48;7.50;99.90
316;DHT22;14128;48.686;9.738;2023-04-25T10:35:17;7.40;99.90
316;DHT22;14128;48.686;9.738;2023-04-25T10:37:57;7.40;1.00
316;DHT22;14128;48.686;9.738;2023-04-25T10:40:25;7.50;99.90
316;DHT22;14128;48.686;9.738;2023-04-25T10:42:52;7.50;99.90
316;DHT22;14128;48.686;9.738;2023-04-25T10:45:20;7.70;99.90
316;DHT22;14128;48.686;9.738;2023-04-25T10:47:47;7.70;99.90
316;DHT22;14128;48.686;9.738;2023-04-25T10:50:14;7.60;1.00
316;DHT22;14128;48.686;9.738;2023-04-25T10:52:42;7.50;99.90
316;DHT22;14128;48.686;9.738;2023-04-25T10:55:09;7.60;99.90
316;DHT22;14128;48.686;9.738;2023-04-25T10:57:40;7.70;99.90
316;DHT22;14128;48.686;9.738;2023-04-25T11:00:11;7.80;99.90
316;DHT22;14128;48.686;9.738;2023-04-25T11:02:41;7.90;1.00
316;DHT22;14128;48.686;9.738;2023-04-25T11:05:10;8.20;99.90
316;DHT22;14128;48.686;9.738;2023-04-25T11:07:48;8.20;99.90
316;DHT22;14128;48.686;9.738;2023-04-25T11:10:16;8.60;99.90
316;DHT22;14128;48.686;9.738;2023-04-25T11:12:46;8.60;21.20
316;DHT22;14128;48.686;9.738;2023-04-25T11:15:13;8.70;99.90
316;DHT22;14128;48.686;9.738;2023-04-25T11:17:40;8.70;99.90
316;DHT22;14128;48.686;9.738;2023-04-25T11:20:09;8.80;99.90
316;DHT22;14128;48.686;9.738;2023-04-25T11:22:38;8.80;1.40
316;DHT22;14128;48.686;9.738;2023-04-25T11:25:06;8.70;99.90
316;DHT22;14128;48.686;9.738;2023-04-25T11:27:33;8.50;99.90
316;DHT22;14128;48.686;9.738;2023-04-25T11:30:12;8.40;99.90
316;DHT22;14128;48.686;9.738;2023-04-25T11:32:40;8.00;1.40
316;DHT22;14128;48.686;9.738;2023-04-25T11:35:08;7.90;99.90
316;DHT22;14128;48.686;9.738;2023-04-25T11:37:35;7.50;99.90
316;DHT22;14128;48.686;9.738;2023-04-25T11:40:03;7.30;99.90
316;DHT22;14128;48.686;9.738;2023-04-25T11:42:30;7.00;99.90
316;DHT22;14128;48.686;9.738;2023-04-25T11:44:58;6.80;99.90
316;DHT22;14128;48.686;9.738;2023-04-25T11:47:29;6.30;99.90
316;DHT22;14128;48.686;9.738;2023-04-25T11:49:58;6.10;99.90
316;DHT22;14128;48.686;9.738;2023-04-25T11:52:34;6.30;99.90
316;DHT22;14128;48.686;9.738;2023-04-25T11:55:01;6.70;99.90
316;DHT22;14128;48.686;9.738;2023-04-25T11:57:31;7.00;99.90
316;DHT22;14128;48.686;9.738;2023-04-25T12:00:06;6.90;1.40
316;DHT22;14128;48.686;9.738;2023-04-25T12:02:36;6.90;99.90
316;DHT22;14128;48.686;9.738;2023-04-25T12:05:06;6.80;99.90
316;DHT22;14128;48.686;9.738;2023-04-25T12:07:33;6.60;1.40
316;DHT22;14128;48.686;9.738;2023-04-25T12:10:04;6.60;99.90
316;DHT22;14128;48.686;9.738;2023-04-25T12:12:32;6.50;99.90
316;DHT22;14128;48.686;9.738;2023-04-25T12:15:09;6.50;99.90
316;DHT22;14128;48.686;9.738;2023-04-25T12:17:38;6.40;99.90
316;DHT22;14128;48.686;9.738;2023-04-25T12:20:10;6.50;99.90
316;DHT22;14128;48.686;9.738;2023-04-25T12:22:37;6.70;99.90
316;DHT22;14128;48.686;9.738;2023-04-25T12:25:04;6.90;99.90
316;DHT22;14128;48.686;9.738;2023-04-25T12:27:32;7.20;1.40
316;DHT22;14128;48.686;9.738;2023-04-25T12:30:01;7.50;99.90
316;DHT22;14128;48.686;9.738;2023-04-25T12:32:29;7.80;99.90
316;DHT22;14128;48.686;9.738;2023-04-25T12:34:57;8.00;6.40
316;DHT22;14128;48.686;9.738;2023-04-25T12:37:24;8.20;99.90
316;DHT22;14128;48.686;9.738;2023-04-25T12:39:51;8.40;99.90
316;DHT22;14128;48.686;9.738;2023-04-25T12:42:18;8.70;99.90
316;DHT22;14128;48.686;9.738;2023-04-25T12:44:45;9.00;99.90
316;DHT22;14128;48.686;9.738;2023-04-25T12:47:12;9.20;99.90
316;DHT22;14128;48.686;9.738;2023-04-25T12:49:39;9.40;99.90
316;DHT22;14128;48.686;9.738;2023-04-25T12:52:07;9.80;99.90
316;DHT22;14128;48.686;9.738;2023-04-25T12:54:34;10.00;99.90
316;DHT22;14128;48.686;9.738;2023-04-25T12:57:01;10.00;99.90
316;DHT22;14128;48.686;9.738;2023-04-25T12:59:28;10.30;1.00
316;DHT22;14128;48.686;9.738;2023-04-25T13:01:55;10.70;99.90
316;DHT22;14128;48.686;9.738;2023-04-25T13:04:22;11.00;54.60
316;DHT22;14128;48.686;9.738;2023-04-25T13:06:48;11.10;1.00
316;DHT22;14128;48.686;9.738;2023-04-25T13:09:17;11.30;99.90
316;DHT22;14128;48.686;9.738;2023-04-25T13:11:44;11.50;1.40
316;DHT22;14128;48.686;9.738;2023-04-25T13:14:11;12.00;99.90
316;DHT22;14128;48.686;9.738;2023-04-25T13:16:38;12.30;99.90
316;DHT22;14128;48.686;9.738;2023-04-25T13:19:05;12.90;99.90
316;DHT22;14128;48.686;9.738;2023-04-25T13:21:33;13.10;1.00
316;DHT22;14128;48.686;9.738;2023-04-25T13:24:00;13.90;1.00
316;DHT22;14128;48.686;9.738;2023-04-25T13:26:28;14.60;99.90
316;DHT22;14128;48.686;9.738;2023-04-25T13:28:55;14.70;1.00
316;DHT22;14128;48.686;9.738;2023-04-25T13:31:22;14.40;99.90
316;DHT22;14128;48.686;9.738;2023-04-25T13:33:50;14.50;99.90
316;DHT22;14128;48.686;9.738;2023-04-25T13:36:16;13.90;99.90
316;DHT22;14128;48.686;9.738;2023-04-25T13:38:43;13.80;1.00
316;DHT22;14128;48.686;9.738;2023-04-25T13:41:12;13.70;1.00
316;DHT22;14128;48.686;9.738;2023-04-25T13:43:45;14.50;1.00
316;DHT22;14128;48.686;9.738;2023-04-25T13:46:13;15.00;99.90
316;DHT22;14128;48.686;9.738;2023-04-25T13:48:41;14.20;99.90
316;DHT22;14128;48.686;9.738;2023-04-25T13:51:13;12.80;99.90
316;DHT22;14128;48.686;9.738;2023-04-25T13:53:40;11.90;99.90
316;DHT22;14128;48.686;9.738;2023-04-25T13:56:07;11.70;1.40
316;DHT22;14128;48.686;9.738;2023-04-25T13:58:33;11.70;1.00
316;DHT22;14128;48.686;9.738;2023-04-25T14:01:02;12.00;99.90
316;DHT22;14128;48.686;9.738;2023-04-25T14:03:30;12.50;99.90
316;DHT22;14128;48.686;9.738;2023-04-25T14:05:57;12.80;1.00
316;DHT22;14128;48.686;9.738;2023-04-25T14:08:24;12.90;99.90
316;DHT22;14128;48.686;9.738;2023-04-25T14:10:51;13.60;1.00
316;DHT22;14128;48.686;9.738;2023-04-25T14:13:18;14.70;1.00
316;DHT22;14128;48.686;9.738;2023-04-25T14:15:45;15.70;99.90
316;DHT22;14128;48.686;9.738;2023-04-25T14:18:13;17.00;99.90
316;DHT22;14128;48.686;9.738;2023-04-25T14:20:40;17.40;99.90
316;DHT22;14128;48.686;9.738;2023-04-25T14:23:07;16.00;99.90
316;DHT22;14128;48.686;9.738;2023-04-25T14:25:34;15.80;1.00
316;DHT22;14128;48.686;9.738;2023-04-25T14:28:02;15.90;9.50
316;DHT22;14128;48.686;9.738;2023-04-25T14:30:29;14.20;1.00
316;DHT22;14128;48.686;9.738;2023-04-25T14:32:56;13.30;88.90
316;DHT22;14128;48.686;9.738;2023-04-25T14:35:24;13.20;99.90
316;DHT22;14128;48.686;9.738;2023-04-25T14:37:51;12.30;1.00
316;DHT22;14128;48.686;9.738;2023-04-25T14:40:18;12.00;99.90
316;DHT22;14128;48.686;9.738;2023-04-25T14:42:48;11.80;99.90
316;DHT22;14128;48.686;9.738;2023-04-25T14:45:15;12.00;99.90
316;DHT22;14128;48.686;9.738;2023-04-25T14:47:42;12.10;1.00
316;DHT22;14128;48.686;9.738;2023-04-25T14:50:10;12.60;16.60
316;DHT22;14128;48.686;9.738;2023-04-25T14:52:38;12.90;99.90
316;DHT22;14128;48.686;9.738;2023-04-25T14:55:05;14.40;99.90
316;DHT22;14128;48.686;9.738;2023-04-25T14:57:33;14.20;99.90
316;DHT22;14128;48.686;9.738;2023-04-25T15:00:00;13.70;1.00
316;DHT22;14128;48.686;9.738;2023-04-25T15:02:27;13.00;1.00
316;DHT22;14128;48.686;9.738;2023-04-25T15:04:54;12.30;3.60
316;DHT22;14128;48.686;9.738;2023-04-25T15:07:22;11.90;1.00
316;DHT22;14128;48.686;9.738;2023-04-25T15:09:50;11.90;1.00
316;DHT22;14128;48.686;9.738;2023-04-25T15:12:18;11.40;54.90
316;DHT22;14128;48.686;9.738;2023-04-25T15:14:45;11.40;1.00
316;DHT22;14128;48.686;9.738;2023-04-25T15:17:12;11.30;1.00
316;DHT22;14128;48.686;9.738;2023-04-25T15:19:40;11.30;1.00
316;DHT22;14128;48.686;9.738;2023-04-25T15:22:07;11.60;99.90
316;DHT22;14128;48.686;9.738;2023-04-25T15:24:34;11.80;1.00
316;DHT22;14128;48.686;9.738;2023-04-25T15:27:02;13.50;99.90
316;DHT22;14128;48.686;9.738;2023-04-25T15:29:29;19.30;99.90
316;DHT22;14128;48.686;9.738;2023-04-25T15:31:57;18.30;99.90
316;DHT22;14128;48.686;9.738;2023-04-25T15:34:23;16.20;99.90
316;DHT22;14128;48.686;9.738;2023-04-25T15:36:50;15.30;1.00
316;DHT22;14128;48.686;9.738;2023-04-25T15:39:17;16.80;99.90
316;DHT22;14128;48.686;9.738;2023-04-25T15:41:44;17.80;99.90
316;DHT22;14128;48.686;9.738;2023-04-25T15:44:12;21.10;99.90
316;DHT22;14128;48.686;9.738;2023-04-25T15:46:39;18.70;89.50
316;DHT22;14128;48.686;9.738;2023-04-25T15:49:06;17.70;99.90
316;DHT22;14128;48.686;9.738;2023-04-25T15:51:33;16.50;1.00
316;DHT22;14128;48.686;9.738;2023-04-25T15:54:00;19.80;99.90
316;DHT22;14128;48.686;9.738;2023-04-25T15:56:28;17.30;99.90
316;DHT22;14128;48.686;9.738;2023-04-25T15:58:55;15.60;99.90
316;DHT22;14128;48.686;9.738;2023-04-25T16:01:23;19.00;99.90
316;DHT22;14128;48.686;9.738;2023-04-25T16:03:55;18.00;99.90
316;DHT22;14128;48.686;9.738;2023-04-25T16:06:22;16.10;99.90
316;DHT22;14128;48.686;9.738;2023-04-25T16:08:50;14.90;52.60
316;DHT22;14128;48.686;9.738;2023-04-25T16:11:18;15.10;1.00
316;DHT22;14128;48.686;9.738;2023-04-25T16:13:44;17.40;99.90
316;DHT22;14128;48.686;9.738;2023-04-25T16:16:12;17.30;99.90
316;DHT22;14128;48.686;9.738;2023-04-25T16:18:40;15.70;99.90
316;DHT22;14128;48.686;9.738;2023-04-25T16:21:07;14.10;48.00
316;DHT22;14128;48.686;9.738;2023-04-25T16:23:36;13.40;99.90